Time;durP1;ratioP1;P1;durP2;ratioP2;P2;SDS_P1;SDS_P2;PMS_P1;PMS_P2;Temp;Humidity;BMP_temperature;BMP_pressure;BME280_temperature;BME280_humidity;BME280_pressure;Samples;Min_cycle;Max_cycle;Signal;HPM_P1;HPM_P2
2022/04/01 00:01:57;;;;;;;3.70;1.00;;;10.90;80.40;;;;;;5056223;28;20049;-66
2022/04/01 00:04:23;;;;;;;2.45;1.15;;;11.10;82.90;;;;;;5062439;28;20099;-66
2022/04/01 00:06:49;;;;;;;2.25;1.40;;;10.90;82.70;;;;;;5058230;28;20049;-66
2022/04/01 00:09:14;;;;;;;3.17;1.00;;;10.80;82.60;;;;;;5073468;28;20044;-66
2022/04/01 00:11:40;;;;;;;4.10;1.23;;;11.00;82.80;;;;;;5064377;28;20461;-67
2022/04/01 00:14:06;;;;;;;3.05;1.30;;;11.00;82.70;;;;;;5059116;28;20055;-66
2022/04/01 00:16:32;;;;;;;3.22;1.15;;;11.00;82.60;;;;;;5057275;28;20095;-66
2022/04/01 00:18:58;;;;;;;2.75;1.10;;;;;;;;;;5071811;28;20051;-65
2022/04/01 00:21:24;;;;;;;3.88;1.20;;;;;;;;;;5059281;28;20124;-65
2022/04/01 00:23:50;;;;;;;3.83;1.33;;;;;;;;;;5071057;28;20060;-66
2022/04/01 00:26:16;;;;;;;3.40;1.20;;;11.00;80.00;;;;;;5074016;28;20048;-66
2022/04/01 00:28:42;;;;;;;3.30;1.10;;;11.00;80.90;;;;;;5069597;28;20046;-64
2022/04/01 00:31:09;;;;;;;5.22;1.25;;;11.10;79.90;;;;;;5076310;28;20047;-66
2022/04/01 00:33:35;;;;;;;2.70;1.10;;;11.10;79.40;;;;;;5074031;28;20052;-65
2022/04/01 00:36:01;;;;;;;2.92;1.17;;;11.00;82.10;;;;;;5072783;28;20097;-64
2022/04/01 00:38:27;;;;;;;6.28;1.65;;;11.10;82.20;;;;;;5056875;28;20049;-66
2022/04/01 00:40:53;;;;;;;3.10;1.40;;;11.00;82.00;;;;;;5066062;28;20068;-65
2022/04/01 00:43:28;;;;;;;2.22;1.15;;;10.90;77.90;;;;;;5076962;28;20446;-65
2022/04/01 00:45:54;;;;;;;2.25;0.93;;;10.90;81.90;;;;;;5056566;28;20041;-65
2022/04/01 00:48:20;;;;;;;2.90;1.10;;;11.10;82.10;;;;;;5056891;28;20052;-64
2022/04/01 00:50:45;;;;;;;3.80;1.58;;;11.10;81.70;;;;;;5071852;28;20151;-64
2022/04/01 00:53:11;;;;;;;3.13;1.42;;;11.10;81.90;;;;;;5058513;28;20123;-65
2022/04/01 00:55:37;;;;;;;2.70;1.25;;;11.10;82.00;;;;;;5075621;28;20043;-66
2022/04/01 00:58:04;;;;;;;4.18;1.20;;;11.10;78.80;;;;;;5042502;28;20057;-66
2022/04/01 01:00:30;;;;;;;3.08;1.27;;;11.20;81.70;;;;;;5071854;28;20075;-66
2022/04/01 01:02:57;;;;;;;4.47;1.40;;;11.00;79.00;;;;;;5059176;28;20461;-66
2022/04/01 01:05:23;;;;;;;2.90;1.13;;;11.00;77.90;;;;;;5054755;28;20063;-66
2022/04/01 01:07:49;;;;;;;2.60;1.40;;;11.10;81.40;;;;;;5054905;28;20490;-66
2022/04/01 01:10:18;;;;;;;3.50;1.40;;;;;;;;;;5073813;28;20050;-66
2022/04/01 01:12:44;;;;;;;3.35;1.27;;;;;;;;;;5074343;28;20045;-67
2022/04/01 01:15:15;;;;;;;3.80;1.20;;;;;;;;;;5061421;28;20123;-66
2022/04/01 01:17:41;;;;;;;6.60;1.30;;;11.00;81.30;;;;;;5074351;28;20048;-65
2022/04/01 01:20:12;;;;;;;4.47;1.70;;;11.30;81.50;;;;;;5056199;28;20043;-67
2022/04/01 01:22:40;;;;;;;3.25;1.30;;;11.00;81.30;;;;;;5064299;28;20106;-66
2022/04/01 01:25:08;;;;;;;3.35;1.60;;;11.10;78.90;;;;;;5067485;28;20495;-66
2022/04/01 01:27:34;;;;;;;3.60;1.20;;;;;;;;;;5064815;28;20390;-66
2022/04/01 01:30:00;;;;;;;3.85;1.23;;;11.00;77.50;;;;;;5073071;28;20048;-66
2022/04/01 01:32:29;;;;;;;2.90;1.20;;;11.10;81.10;;;;;;5056512;28;20049;-66
2022/04/01 01:34:56;;;;;;;2.03;1.05;;;10.90;81.20;;;;;;5055581;28;20053;-66
2022/04/01 01:37:22;;;;;;;3.05;1.30;;;11.20;81.20;;;;;;5071137;28;20581;-66
2022/04/01 01:39:48;;;;;;;3.33;1.27;;;11.00;81.10;;;;;;5074337;28;20086;-66
2022/04/01 01:42:14;;;;;;;3.30;1.23;;;11.20;81.10;;;;;;5057020;28;20041;-66
2022/04/01 01:44:40;;;;;;;4.25;1.38;;;11.40;81.30;;;;;;5055890;28;20056;-67
2022/04/01 01:47:06;;;;;;;2.20;1.23;;;;;;;;;;5071314;28;20052;-66
2022/04/01 01:49:32;;;;;;;5.40;1.35;;;11.20;81.10;;;;;;5064516;28;20044;-66
2022/04/01 01:54:43;;;;;;;3.08;1.20;;;;;;;;;;5063170;28;20101;-63
2022/04/01 01:57:09;;;;;;;2.97;1.17;;;11.30;81.10;;;;;;5054992;28;20132;-66
2022/04/01 01:59:35;;;;;;;2.97;1.13;;;11.40;81.10;;;;;;5067973;28;20085;-63
2022/04/01 02:02:05;;;;;;;3.00;1.50;;;11.10;80.90;;;;;;5070382;28;20135;-65
2022/04/01 02:04:31;;;;;;;2.88;1.13;;;11.00;80.80;;;;;;5073277;28;20055;-61
2022/04/01 02:06:57;;;;;;;3.13;1.30;;;;;;;;;;5053854;28;20064;-64
2022/04/01 02:09:23;;;;;;;2.58;1.00;;;11.10;81.00;;;;;;5067684;28;20556;-65
2022/04/01 02:11:49;;;;;;;3.42;1.17;;;11.20;78.60;;;;;;5057672;28;20052;-65
2022/04/01 02:14:14;;;;;;;3.03;1.20;;;11.00;80.90;;;;;;5067758;28;20059;-64
2022/04/01 02:16:43;;;;;;;2.00;1.08;;;11.20;78.60;;;;;;5061594;28;20114;-65
2022/04/01 02:19:09;;;;;;;3.10;1.10;;;11.20;80.90;;;;;;5053732;28;20131;-65
2022/04/01 02:21:35;;;;;;;2.13;1.10;;;;;;;;;;5060319;28;20036;-65
2022/04/01 02:24:01;;;;;;;4.15;1.20;;;11.20;78.50;;;;;;5075182;28;20394;-66
2022/04/01 02:26:27;;;;;;;3.13;1.60;;;11.10;81.00;;;;;;5062922;28;20048;-66
2022/04/01 02:28:56;;;;;;;2.25;1.10;;;11.20;81.20;;;;;;5058082;28;20509;-67
2022/04/01 02:31:22;;;;;;;2.90;1.25;;;11.40;81.10;;;;;;5071913;28;20118;-63
2022/04/01 02:33:48;;;;;;;4.30;1.35;;;11.00;80.90;;;;;;5063053;28;20048;-64
2022/04/01 02:36:13;;;;;;;3.20;1.00;;;11.10;78.60;;;;;;5058953;28;20071;-65
2022/04/01 02:38:40;;;;;;;4.10;1.17;;;11.20;78.10;;;;;;5073545;28;20048;-64
2022/04/01 02:41:07;;;;;;;2.42;1.13;;;11.20;81.40;;;;;;5073608;28;20123;-65
2022/04/01 02:43:33;;;;;;;2.55;1.17;;;11.30;81.00;;;;;;5059103;28;20052;-66
2022/04/01 02:45:59;;;;;;;4.18;1.23;;;11.40;81.20;;;;;;5053772;28;20045;-65
2022/04/01 02:48:25;;;;;;;3.55;1.20;;;11.30;81.10;;;;;;5054636;28;20076;-66
2022/04/01 02:50:51;;;;;;;2.88;1.10;;;;;;;;;;5060329;28;20417;-64
2022/04/01 02:53:16;;;;;;;4.05;1.23;;;11.00;78.40;;;;;;5061419;28;20114;-64
2022/04/01 02:55:43;;;;;;;2.20;1.13;;;;;;;;;;5063118;28;20123;-64
2022/04/01 02:58:09;;;;;;;2.75;1.05;;;11.30;81.10;;;;;;5054220;28;20380;-65
2022/04/01 03:00:38;;;;;;;2.03;0.82;;;11.30;81.10;;;;;;5059406;28;20060;-66
2022/04/01 03:03:06;;;;;;;2.78;1.10;;;11.10;80.90;;;;;;5060392;28;20088;-62
2022/04/01 03:05:40;;;;;;;2.80;0.93;;;11.00;77.00;;;;;;5062368;28;20131;-66
2022/04/01 03:08:07;;;;;;;3.15;1.23;;;11.20;81.00;;;;;;5066880;28;20098;-66
2022/04/01 03:10:37;;;;;;;3.63;1.10;;;11.20;81.20;;;;;;5072131;28;20450;-64
2022/04/01 03:13:03;;;;;;;3.10;1.17;;;11.20;81.00;;;;;;5069984;28;20040;-65
2022/04/01 03:15:29;;;;;;;3.42;1.30;;;11.30;81.20;;;;;;5069105;28;20174;-66
2022/04/01 03:17:56;;;;;;;3.20;1.00;;;11.10;78.50;;;;;;5074100;28;20045;-65
2022/04/01 03:20:22;;;;;;;2.33;1.00;;;;;;;;;;5053060;28;20048;-62
2022/04/01 03:22:48;;;;;;;2.95;1.20;;;11.20;78.40;;;;;;5058218;28;20137;-65
2022/04/01 03:25:15;;;;;;;2.25;1.05;;;11.10;80.90;;;;;;5045808;28;20485;-66
2022/04/01 03:27:41;;;;;;;2.50;1.05;;;11.20;81.10;;;;;;5053191;28;20052;-66
2022/04/01 03:30:11;;;;;;;3.42;1.27;;;11.10;80.20;;;;;;5064640;28;20044;-66
2022/04/01 03:32:40;;;;;;;2.55;1.23;;;11.10;80.90;;;;;;5073324;28;20050;-65
2022/04/01 03:35:15;;;;;;;2.42;1.10;;;11.10;81.10;;;;;;5057747;28;20071;-66
2022/04/01 03:37:41;;;;;;;3.00;0.90;;;11.10;80.80;;;;;;5053515;28;20135;-65
2022/04/01 03:40:08;;;;;;;2.65;1.00;;;11.10;80.80;;;;;;5053581;28;20059;-65
2022/04/01 03:42:34;;;;;;;2.72;0.90;;;11.10;80.80;;;;;;5053252;28;20295;-66
2022/04/01 03:45:03;;;;;;;2.53;1.15;;;11.10;81.10;;;;;;5053731;28;20044;-66
2022/04/01 03:47:44;;;;;;;2.63;1.00;;;11.00;76.80;;;;;;5054384;28;20052;-65
2022/04/01 03:50:11;;;;;;;3.35;1.25;;;10.80;80.50;;;;;;5054268;28;20399;-61
2022/04/01 03:52:37;;;;;;;3.70;1.10;;;;;;;;;;5057183;28;20044;-65
2022/04/01 03:55:05;;;;;;;3.55;1.17;;;11.10;80.70;;;;;;5068497;28;20083;-66
2022/04/01 03:57:49;;;;;;;3.53;1.10;;;11.10;78.20;;;;;;5067485;28;20079;-66
2022/04/01 04:00:15;;;;;;;2.20;1.00;;;10.80;81.00;;;;;;5078883;28;20052;-66
2022/04/01 04:02:41;;;;;;;1.98;0.90;;;11.00;80.40;;;;;;5083393;28;20065;-66
2022/04/01 04:05:09;;;;;;;6.50;1.15;;;10.90;80.60;;;;;;5083091;28;20474;-66
2022/04/01 04:07:35;;;;;;;1.83;0.75;;;11.10;80.70;;;;;;5070345;28;20055;-66
2022/04/01 04:10:02;;;;;;;2.40;0.80;;;;;;;;;;5070535;28;20509;-65
2022/04/01 04:12:30;;;;;;;2.95;0.95;;;10.70;80.70;;;;;;5060128;28;20041;-66
2022/04/01 04:14:57;;;;;;;1.95;0.90;;;;;;;;;;5063753;28;20123;-66
2022/04/01 04:17:49;;;;;;;5.32;0.88;;;11.10;76.70;;;;;;5067722;28;20428;-66
2022/04/01 04:20:34;;;;;;;2.42;0.90;;;10.80;76.60;;;;;;5062535;28;20545;-66
2022/04/01 04:23:17;;;;;;;2.90;1.10;;;10.90;76.70;;;;;;5063204;28;20052;-67
2022/04/01 04:26:02;;;;;;;2.78;1.00;;;10.70;78.20;;;;;;5072435;28;20053;-66
2022/04/01 04:28:27;;;;;;;3.90;1.17;;;11.10;80.80;;;;;;5057662;28;20390;-66
2022/04/01 04:30:53;;;;;;;3.30;0.90;;;10.90;78.20;;;;;;5054725;28;20059;-67
2022/04/01 04:33:21;;;;;;;3.58;1.02;;;;;;;;;;5062815;28;20110;-66
2022/04/01 04:35:48;;;;;;;2.60;1.08;;;11.00;81.00;;;;;;5061529;28;20124;-67
2022/04/01 04:38:16;;;;;;;3.47;1.10;;;;;;;;;;5054738;28;20461;-67
2022/04/01 04:40:42;;;;;;;2.22;0.98;;;10.90;80.60;;;;;;5071264;28;20405;-66
2022/04/01 04:43:08;;;;;;;3.72;1.10;;;;;;;;;;5062783;28;20079;-66
2022/04/01 04:45:34;;;;;;;3.90;1.10;;;10.80;80.50;;;;;;5060408;28;20036;-67
2022/04/01 04:48:00;;;;;;;2.40;1.10;;;11.00;81.20;;;;;;5055216;28;20048;-66
2022/04/01 04:50:26;;;;;;;3.05;1.10;;;10.70;80.50;;;;;;5069718;28;20491;-66
2022/04/01 04:52:53;;;;;;;4.55;1.10;;;10.80;80.60;;;;;;5064210;28;20051;-66
2022/04/01 04:55:19;;;;;;;4.13;1.00;;;;;;;;;;5056622;28;20395;-65
2022/04/01 04:57:46;;;;;;;3.85;1.10;;;10.90;80.60;;;;;;5051184;28;22338;-66
2022/04/01 05:00:13;;;;;;;1.52;0.70;;;;;;;;;;5051835;28;20041;-65
2022/04/01 05:02:58;;;;;;;3.17;1.20;;;11.10;80.70;;;;;;5058236;28;20086;-66
2022/04/01 05:05:31;;;;;;;3.25;1.30;;;11.10;80.70;;;;;;5068117;28;20098;-66
2022/04/01 05:08:48;;;;;;;3.95;1.15;;;10.80;78.20;;;;;;5072605;28;20109;-66
2022/04/01 05:11:24;;;;;;;3.50;1.20;;;;;;;;;;5013950;28;20089;-66
2022/04/01 05:14:11;;;;;;;2.70;1.40;;;10.90;80.60;;;;;;5033250;28;20103;-65
2022/04/01 05:16:57;;;;;;;2.90;1.42;;;;;;;;;;5016853;28;20060;-65
2022/04/01 05:19:27;;;;;;;1.73;0.80;;;11.00;80.70;;;;;;4998078;28;20457;-65
2022/04/01 05:22:02;;;;;;;3.50;1.00;;;11.00;76.80;;;;;;5022038;28;20062;-66
2022/04/01 05:24:35;;;;;;;5.55;0.98;;;;;;;;;;4997917;28;20124;-66
2022/04/01 05:27:02;;;;;;;2.22;1.00;;;10.80;78.10;;;;;;5017356;28;20076;-66
2022/04/01 05:29:31;;;;;;;2.38;1.10;;;10.90;80.50;;;;;;5014068;28;20038;-65
2022/04/01 05:32:05;;;;;;;2.92;1.20;;;10.80;80.60;;;;;;5022583;28;20440;-66
2022/04/01 05:34:39;;;;;;;3.67;1.10;;;11.00;80.60;;;;;;5028784;28;20060;-66
2022/04/01 05:37:05;;;;;;;3.22;1.10;;;10.70;78.00;;;;;;5021595;28;20439;-66
2022/04/01 05:39:31;;;;;;;3.17;1.17;;;10.80;80.50;;;;;;5024666;28;20500;-66
2022/04/01 05:41:57;;;;;;;2.97;0.98;;;11.00;78.20;;;;;;5007875;28;20052;-67
2022/04/01 05:44:25;;;;;;;2.50;0.88;;;11.00;77.60;;;;;;5043340;28;20053;-66
2022/04/01 05:46:51;;;;;;;4.25;1.15;;;11.10;80.70;;;;;;5048532;28;20045;-67
2022/04/01 05:49:18;;;;;;;1.52;0.82;;;11.10;78.80;;;;;;5055434;28;20045;-66
2022/04/01 05:51:46;;;;;;;3.45;1.10;;;;;;;;;;5059439;28;20103;-65
2022/04/01 05:54:12;;;;;;;2.03;0.82;;;11.20;80.60;;;;;;5067408;28;20041;-65
2022/04/01 05:56:38;;;;;;;2.80;1.10;;;;;;;;;;5056086;28;20055;-60
2022/04/01 05:59:04;;;;;;;4.75;1.17;;;10.80;80.50;;;;;;5055865;28;20164;-65
2022/04/01 06:01:36;;;;;;;3.22;1.05;;;10.90;80.60;;;;;;5053634;28;20132;-66
2022/04/01 06:04:59;;;;;;;3.50;1.00;;;10.90;80.50;;;;;;5056083;28;20049;-66
2022/04/01 06:07:28;;;;;;;2.30;0.90;;;10.90;76.40;;;;;;5032552;28;20049;-62
2022/04/01 06:10:09;;;;;;;3.15;1.10;;;;;;;;;;5016771;28;20127;-65
2022/04/01 06:12:53;;;;;;;3.00;1.30;;;11.10;80.60;;;;;;5028430;28;20076;-66
2022/04/01 06:15:27;;;;;;;2.40;1.05;;;11.10;80.70;;;;;;5047958;28;20056;-64
2022/04/01 06:18:10;;;;;;;4.80;1.10;;;11.10;78.00;;;;;;5047701;28;20173;-62
2022/04/01 06:20:38;;;;;;;4.47;1.10;;;11.00;78.30;;;;;;5014895;28;20414;-63
2022/04/01 06:23:14;;;;;;;4.63;1.10;;;11.20;76.40;;;;;;5032933;28;20499;-63
2022/04/01 06:25:41;;;;;;;3.40;1.10;;;;;;;;;;5031801;28;20057;-62
2022/04/01 06:28:57;;;;;;;4.57;1.35;;;11.30;78.50;;;;;;5032712;28;20098;-62
2022/04/01 06:31:23;;;;;;;4.82;1.65;;;11.50;81.00;;;;;;4973075;28;20061;-62
2022/04/01 06:34:15;;;;;;;2.15;1.02;;;11.20;77.00;;;;;;4975716;28;20437;-61
2022/04/01 06:36:45;;;;;;;3.53;1.00;;;11.30;81.00;;;;;;4972569;28;20223;-62
2022/04/01 06:39:11;;;;;;;3.33;0.95;;;10.90;80.40;;;;;;5017551;28;20046;-62
2022/04/01 06:41:46;;;;;;;3.58;1.13;;;11.20;80.50;;;;;;5012125;28;20470;-61
2022/04/01 06:44:12;;;;;;;5.68;1.17;;;11.20;80.50;;;;;;5012298;28;20048;-62
2022/04/01 06:46:38;;;;;;;3.47;1.17;;;11.30;80.50;;;;;;4979643;28;20725;-61
2022/04/01 06:49:08;;;;;;;2.95;1.10;;;11.00;80.20;;;;;;4980111;28;20058;-61
2022/04/01 06:51:37;;;;;;;5.28;1.10;;;11.20;80.20;;;;;;5014895;28;20052;-61
2022/04/01 06:54:03;;;;;;;2.08;0.95;;;11.20;80.40;;;;;;4984683;28;20103;-61
2022/04/01 06:56:29;;;;;;;5.25;1.10;;;;;;;;;;5017802;28;20057;-63
2022/04/01 06:58:55;;;;;;;3.00;0.93;;;11.50;80.50;;;;;;5002967;28;20060;-63
2022/04/01 07:01:21;;;;;;;3.17;1.00;;;;;;;;;;5027912;28;20048;-63
2022/04/01 07:03:47;;;;;;;1.90;1.00;;;11.10;80.20;;;;;;5074295;28;20482;-63
2022/04/01 07:06:13;;;;;;;2.08;1.13;;;;;;;;;;5074317;28;20198;-63
2022/04/01 07:08:39;;;;;;;4.35;1.20;;;11.00;77.80;;;;;;5073965;28;20512;-62
2022/04/01 07:11:05;;;;;;;2.13;0.90;;;11.20;80.10;;;;;;5069063;28;20049;-61
2022/04/01 07:13:32;;;;;;;5.88;1.10;;;;;;;;;;5072872;28;20052;-61
2022/04/01 07:15:58;;;;;;;2.55;1.13;;;11.10;80.10;;;;;;5073858;28;20048;-61
2022/04/01 07:18:24;;;;;;;2.65;1.10;;;;;;;;;;5074034;28;20115;-62
2022/04/01 07:20:52;;;;;;;3.22;1.00;;;11.20;80.40;;;;;;5073571;28;20051;-61
2022/04/01 07:23:17;;;;;;;2.75;1.30;;;11.10;80.10;;;;;;5058319;28;20037;-61
2022/04/01 07:25:43;;;;;;;2.67;0.90;;;11.40;77.80;;;;;;5067790;28;20044;-62
2022/04/01 07:28:09;;;;;;;2.25;1.10;;;11.20;80.10;;;;;;5086561;28;20398;-62
2022/04/01 07:30:36;;;;;;;2.80;0.90;;;;;;;;;;5067120;28;20080;-61
2022/04/01 07:33:03;;;;;;;2.85;1.00;;;11.30;77.80;;;;;;5064711;28;20055;-61
2022/04/01 07:35:29;;;;;;;2.53;1.15;;;11.30;80.40;;;;;;5052329;28;20051;-61
2022/04/01 07:37:55;;;;;;;2.92;1.10;;;10.90;80.20;;;;;;5072357;28;20052;-61
2022/04/01 07:40:22;;;;;;;1.95;0.90;;;11.00;80.40;;;;;;5073270;28;20094;-61
2022/04/01 07:42:48;;;;;;;1.95;1.00;;;11.10;80.50;;;;;;5071782;28;20043;-61
2022/04/01 07:45:14;;;;;;;3.15;1.08;;;11.20;80.80;;;;;;5062711;28;20044;-61
2022/04/01 07:47:44;;;;;;;2.83;1.10;;;11.40;81.00;;;;;;5073724;28;20055;-61
2022/04/01 07:50:10;;;;;;;3.75;1.30;;;11.20;81.10;;;;;;5073611;28;20087;-62
2022/04/01 07:52:40;;;;;;;2.53;1.40;;;11.00;81.10;;;;;;5070873;28;20048;-62
2022/04/01 07:55:07;;;;;;;4.82;1.20;;;11.00;81.10;;;;;;5059120;28;20375;-62
2022/04/01 07:57:33;;;;;;;3.85;1.52;;;;;;;;;;5053392;28;20041;-62
2022/04/01 07:59:58;;;;;;;4.40;1.58;;;11.20;81.60;;;;;;5053147;28;20091;-61
2022/04/01 08:02:24;;;;;;;4.45;1.40;;;;;;;;;;5061356;28;20056;-61
2022/04/01 08:04:50;;;;;;;4.93;1.55;;;11.00;81.60;;;;;;5069250;28;20079;-60
2022/04/01 08:07:16;;;;;;;8.48;1.80;;;11.00;81.80;;;;;;5071869;28;20507;-61
2022/04/01 08:09:42;;;;;;;13.20;2.50;;;11.10;82.10;;;;;;5072201;28;20047;-61
2022/04/01 08:12:08;;;;;;;9.15;1.98;;;11.00;81.90;;;;;;5073067;28;20049;-61
2022/04/01 08:14:36;;;;;;;10.45;2.10;;;11.10;82.00;;;;;;5073024;28;20523;-61
2022/04/01 08:17:02;;;;;;;6.72;1.90;;;11.00;82.00;;;;;;5056666;28;20044;-65
2022/04/01 08:19:28;;;;;;;9.77;2.30;;;11.10;82.50;;;;;;5063597;28;20132;-66
2022/04/01 08:21:57;;;;;;;12.10;2.97;;;10.80;82.00;;;;;;5053279;28;20136;-66
2022/04/01 08:24:24;;;;;;;23.77;3.08;;;;;;;;;;5053296;28;20394;-66
2022/04/01 08:26:51;;;;;;;9.95;3.25;;;10.90;82.20;;;;;;5054465;28;20107;-65
2022/04/01 08:29:17;;;;;;;10.68;2.90;;;10.90;82.20;;;;;;5051696;28;20033;-66
2022/04/01 08:31:42;;;;;;;10.95;2.75;;;10.90;82.60;;;;;;5053305;28;20124;-65
2022/04/01 08:34:09;;;;;;;8.45;2.65;;;11.00;82.30;;;;;;5051276;28;20534;-65
2022/04/01 08:36:35;;;;;;;13.75;3.25;;;11.10;82.30;;;;;;5061011;28;20131;-61
2022/04/01 08:39:01;;;;;;;9.77;2.80;;;10.80;82.20;;;;;;5085270;28;20045;-61
2022/04/01 08:41:27;;;;;;;15.85;2.95;;;11.10;82.40;;;;;;5052713;28;20063;-65
2022/04/01 08:43:53;;;;;;;8.57;2.70;;;11.00;82.90;;;;;;5055721;28;20123;-61
2022/04/01 08:46:19;;;;;;;9.68;3.00;;;11.00;79.10;;;;;;5064366;28;20427;-62
2022/04/01 08:48:45;;;;;;;8.60;2.50;;;11.00;82.40;;;;;;5072347;28;20093;-60
2022/04/01 08:51:11;;;;;;;6.88;2.60;;;10.80;82.60;;;;;;5076841;28;20445;-60
2022/04/01 08:53:37;;;;;;;5.40;2.45;;;11.10;82.70;;;;;;5065094;28;20048;-60
2022/04/01 08:56:04;;;;;;;8.75;2.63;;;11.00;82.60;;;;;;5056495;28;20037;-66
2022/04/01 08:58:30;;;;;;;10.60;2.97;;;;;;;;;;5057820;28;20041;-62
2022/04/01 09:00:57;;;;;;;6.30;2.70;;;10.70;82.60;;;;;;5055237;28;20092;-64
2022/04/01 09:03:23;;;;;;;10.52;2.80;;;11.20;82.60;;;;;;5056413;28;20049;-64
2022/04/01 09:05:54;;;;;;;7.45;2.83;;;11.00;82.40;;;;;;5055353;28;20072;-63
2022/04/01 09:08:24;;;;;;;6.85;3.22;;;10.90;78.00;;;;;;5056915;28;20056;-64
2022/04/01 09:10:51;;;;;;;7.32;2.75;;;11.00;82.40;;;;;;5066591;28;20060;-62
2022/04/01 09:13:17;;;;;;;8.30;2.88;;;11.10;82.70;;;;;;5065320;28;20045;-64
2022/04/01 09:15:43;;;;;;;6.80;3.25;;;;;;;;;;5056192;28;20045;-61
2022/04/01 09:18:09;;;;;;;7.45;2.90;;;11.10;82.60;;;;;;5056437;28;20106;-64
2022/04/01 09:20:45;;;;;;;8.23;2.60;;;11.10;78.50;;;;;;5067787;28;20080;-60
2022/04/01 09:23:11;;;;;;;7.45;2.90;;;;;;;;;;5075503;28;20055;-65
2022/04/01 09:25:38;;;;;;;6.20;2.75;;;;;;;;;;5065731;28;20414;-65
2022/04/01 09:28:07;;;;;;;10.02;2.80;;;11.40;78.10;;;;;;5077054;28;20048;-65
2022/04/01 09:30:33;;;;;;;5.50;2.92;;;;;;;;;;5082599;28;20044;-66
2022/04/01 09:33:01;;;;;;;5.18;2.72;;;11.20;82.40;;;;;;5096263;28;20043;-64
2022/04/01 09:35:32;;;;;;;6.15;3.03;;;11.00;82.20;;;;;;5096272;28;20450;-63
2022/04/01 09:37:59;;;;;;;5.50;2.70;;;11.10;82.40;;;;;;5095458;28;20036;-64
2022/04/01 09:40:25;;;;;;;7.88;2.88;;;11.20;82.40;;;;;;5095636;28;20050;-63
2022/04/01 09:42:55;;;;;;;6.65;2.80;;;11.50;80.30;;;;;;5095798;28;20094;-65
2022/04/01 09:45:25;;;;;;;5.95;2.92;;;11.10;79.40;;;;;;5079268;28;20075;-61
2022/04/01 09:48:04;;;;;;;7.80;3.08;;;11.40;82.90;;;;;;5075922;28;20048;-63
2022/04/01 09:50:34;;;;;;;5.72;2.63;;;11.30;82.50;;;;;;5074186;28;20123;-66
2022/04/01 09:53:10;;;;;;;8.10;2.78;;;11.50;78.60;;;;;;5084484;28;20066;-61
2022/04/01 09:55:37;;;;;;;7.38;2.80;;;11.20;82.50;;;;;;5095659;28;20039;-61
2022/04/01 09:58:04;;;;;;;5.03;2.30;;;11.70;82.80;;;;;;5095720;28;20048;-62
2022/04/01 10:00:30;;;;;;;5.00;2.30;;;11.40;82.60;;;;;;5094195;28;20119;-61
2022/04/01 10:02:56;;;;;;;6.20;2.42;;;11.30;83.00;;;;;;5075621;28;20128;-62
2022/04/01 10:05:22;;;;;;;5.30;2.38;;;;;;;;;;5075598;28;20455;-62
2022/04/01 10:07:47;;;;;;;7.43;2.70;;;11.60;82.70;;;;;;5075490;28;20063;-63
2022/04/01 10:10:16;;;;;;;8.63;2.53;;;11.60;82.70;;;;;;5074323;28;20394;-63
2022/04/01 10:12:42;;;;;;;4.93;2.58;;;11.70;82.60;;;;;;5074219;28;20041;-63
2022/04/01 10:15:08;;;;;;;6.32;2.50;;;11.80;82.80;;;;;;5074196;28;20045;-62
2022/04/01 10:17:36;;;;;;;4.47;1.90;;;11.50;82.50;;;;;;5075845;28;20052;-63
2022/04/01 10:20:02;;;;;;;6.13;2.50;;;11.70;82.70;;;;;;5074790;28;20040;-62
2022/04/01 10:22:28;;;;;;;6.30;2.10;;;11.70;80.30;;;;;;5075186;28;20105;-63
2022/04/01 10:25:03;;;;;;;5.35;2.13;;;11.90;78.70;;;;;;5074831;28;20044;-63
2022/04/01 10:27:38;;;;;;;5.28;2.03;;;11.90;78.50;;;;;;5080886;28;20051;-66
2022/04/01 10:30:04;;;;;;;6.30;1.90;;;11.70;82.20;;;;;;5077111;28;20643;-62
2022/04/01 10:32:41;;;;;;;5.60;2.05;;;11.80;80.00;;;;;;5081896;28;20051;-62
2022/04/01 10:35:09;;;;;;;3.97;1.73;;;11.50;82.30;;;;;;5094042;28;20044;-62
2022/04/01 10:37:35;;;;;;;7.63;2.10;;;11.60;80.00;;;;;;5095070;28;20362;-62
2022/04/01 10:40:17;;;;;;;4.15;1.65;;;11.70;78.50;;;;;;5095088;28;20090;-62
2022/04/01 10:42:43;;;;;;;5.97;1.65;;;11.90;82.30;;;;;;5094796;28;20044;-61
2022/04/01 10:45:15;;;;;;;6.88;1.90;;;11.80;78.20;;;;;;5095035;28;20048;-61
2022/04/01 10:53:40;;;;;;;5.22;1.73;;;11.90;77.90;;;;;;5076999;28;20101;-61
2022/04/01 10:56:24;;;;;;;4.50;1.75;;;11.70;79.60;;;;;;5074477;28;20052;-62
2022/04/01 10:59:08;;;;;;;3.40;1.60;;;12.00;78.20;;;;;;5074974;28;20136;-61
2022/04/01 11:01:35;;;;;;;3.17;1.48;;;11.90;79.10;;;;;;5073946;28;20083;-62
2022/04/01 11:04:08;;;;;;;3.63;1.77;;;11.90;82.00;;;;;;5084465;28;20048;-62
2022/04/01 11:06:35;;;;;;;3.77;1.67;;;12.00;82.10;;;;;;5092707;28;20052;-62
2022/04/01 11:09:04;;;;;;;3.70;1.52;;;11.90;81.90;;;;;;5081878;28;20270;-61
2022/04/01 11:11:30;;;;;;;3.40;1.30;;;11.80;81.80;;;;;;5074223;28;20052;-61
2022/04/01 11:14:06;;;;;;;5.22;1.52;;;11.80;81.70;;;;;;5067675;28;20039;-61
2022/04/01 11:16:49;;;;;;;3.58;1.20;;;11.80;79.20;;;;;;5073901;28;20102;-61
2022/04/01 11:19:15;;;;;;;3.30;1.52;;;11.80;81.80;;;;;;5075016;28;20044;-61
2022/04/01 11:21:41;;;;;;;3.65;1.33;;;11.90;81.70;;;;;;5092510;28;20555;-61
2022/04/01 11:24:41;;;;;;;3.60;1.30;;;11.80;81.80;;;;;;5093117;28;20039;-61
2022/04/01 11:27:23;;;;;;;4.45;1.60;;;12.10;78.00;;;;;;5077036;28;20106;-62
2022/04/01 11:30:07;;;;;;;3.67;1.45;;;12.00;78.00;;;;;;5087580;28;20105;-62
2022/04/01 11:32:36;;;;;;;3.10;1.50;;;11.90;77.70;;;;;;5091827;28;20136;-61
2022/04/01 11:35:03;;;;;;;4.03;1.48;;;11.90;81.70;;;;;;5091611;28;20390;-62
2022/04/01 11:37:29;;;;;;;4.03;1.50;;;11.90;79.20;;;;;;5091878;28;20133;-62
2022/04/01 11:40:12;;;;;;;2.75;1.30;;;12.10;77.90;;;;;;5091733;28;20531;-62
2022/04/01 11:42:57;;;;;;;3.83;1.70;;;;;;;;;;5056193;28;20056;-63
2022/04/01 11:45:23;;;;;;;3.78;1.10;;;11.80;81.50;;;;;;5054801;28;20037;-62
2022/04/01 11:47:49;;;;;;;3.30;1.40;;;12.20;79.10;;;;;;5054599;28;20044;-61
2022/04/01 11:50:16;;;;;;;4.50;1.58;;;11.90;81.20;;;;;;5071238;28;20597;-62
2022/04/01 11:52:43;;;;;;;3.55;1.50;;;12.10;81.30;;;;;;5071364;28;20055;-62
2022/04/01 11:55:16;;;;;;;3.35;1.55;;;11.70;76.80;;;;;;5071296;28;20040;-62
2022/04/01 11:57:42;;;;;;;2.30;1.30;;;11.70;80.90;;;;;;5071385;28;20056;-61
2022/04/01 12:00:14;;;;;;;3.80;1.38;;;12.10;80.90;;;;;;5077648;28;20513;-61
2022/04/01 12:02:41;;;;;;;3.75;1.40;;;12.30;81.20;;;;;;5087940;28;20059;-61
2022/04/01 12:05:07;;;;;;;3.25;1.38;;;12.20;81.10;;;;;;5073256;28;20047;-61
2022/04/01 12:10:24;;;;;;;5.90;1.35;;;11.90;80.60;;;;;;5073530;28;20500;-61
2022/04/01 12:12:54;;;;;;;6.00;1.50;;;12.00;80.50;;;;;;5074308;28;20111;-61
2022/04/01 12:15:30;;;;;;;3.95;1.30;;;;;;;;;;5093445;28;20047;-61
2022/04/01 12:17:56;;;;;;;4.57;1.63;;;12.00;80.50;;;;;;5081791;28;20044;-61
2022/04/01 12:20:21;;;;;;;4.78;1.35;;;12.00;78.10;;;;;;5077103;28;20065;-61
2022/04/01 12:22:50;;;;;;;5.57;1.42;;;11.90;80.50;;;;;;5072273;28;20041;-61
2022/04/01 12:25:16;;;;;;;4.95;1.88;;;12.00;80.60;;;;;;5077473;28;20429;-61
2022/04/01 12:27:55;;;;;;;5.75;1.63;;;11.80;78.10;;;;;;5059207;28;20083;-62
2022/04/01 12:30:51;;;;;;;4.47;1.63;;;12.00;78.20;;;;;;5060089;28;20055;-62
2022/04/01 12:33:17;;;;;;;6.03;1.65;;;12.10;80.10;;;;;;5077036;28;20146;-62
2022/04/01 12:35:52;;;;;;;5.65;1.58;;;11.80;76.40;;;;;;5097010;28;20399;-61
2022/04/01 12:38:18;;;;;;;4.72;1.63;;;11.90;80.80;;;;;;5096153;28;20186;-62
2022/04/01 12:40:44;;;;;;;5.55;1.73;;;12.00;78.40;;;;;;5097103;28;20084;-63
2022/04/01 12:43:39;;;;;;;6.15;1.85;;;11.70;80.50;;;;;;5096032;28;20133;-62
2022/04/01 12:46:12;;;;;;;5.35;1.48;;;11.80;78.20;;;;;;5097329;28;20043;-62
2022/04/01 12:48:51;;;;;;;3.28;1.50;;;11.80;76.40;;;;;;5097289;28;20052;-62
2022/04/01 12:51:23;;;;;;;4.68;2.00;;;12.30;80.70;;;;;;5096213;28;20119;-61
2022/04/01 12:53:52;;;;;;;4.07;1.60;;;12.10;78.20;;;;;;5097281;28;20048;-61
2022/04/01 12:56:19;;;;;;;5.65;1.80;;;11.60;80.30;;;;;;5095719;28;20055;-62
2022/04/01 12:58:52;;;;;;;3.70;1.70;;;11.90;78.00;;;;;;5097089;28;20073;-61
2022/04/01 13:01:20;;;;;;;4.35;1.70;;;;;;;;;;5096496;28;20064;-62
2022/04/01 13:03:47;;;;;;;4.05;1.70;;;12.00;80.50;;;;;;5078684;28;20129;-63
2022/04/01 13:06:13;;;;;;;5.25;1.50;;;12.10;78.10;;;;;;5096690;28;20127;-63
2022/04/01 13:08:39;;;;;;;9.15;2.13;;;11.90;80.50;;;;;;5095717;28;20043;-63
2022/04/01 13:11:14;;;;;;;6.32;1.73;;;11.80;76.10;;;;;;5096767;28;20056;-63
2022/04/01 13:13:41;;;;;;;4.70;1.45;;;11.60;80.30;;;;;;5096766;28;20036;-62
2022/04/01 13:16:07;;;;;;;5.03;1.67;;;12.10;80.70;;;;;;5096350;28;20046;-63
2022/04/01 13:18:33;;;;;;;5.38;1.48;;;12.30;80.60;;;;;;5097358;28;20088;-61
2022/04/01 13:20:59;;;;;;;3.65;1.67;;;11.80;80.50;;;;;;5096166;28;20075;-62
2022/04/01 13:23:30;;;;;;;4.07;1.67;;;12.00;80.60;;;;;;5096364;28;20441;-62
2022/04/01 13:25:56;;;;;;;4.45;1.30;;;12.00;80.70;;;;;;5081678;28;20067;-63